Time;durP1;ratioP1;P1;durP2;ratioP2;P2;SDS_P1;SDS_P2;PMS_P1;PMS_P2;Temp;Humidity;BMP_temperature;BMP_pressure;BME280_temperature;BME280_humidity;BME280_pressure;Samples;Min_cycle;Max_cycle;Signal;HPM_P1;HPM_P2
2023/08/28 00:02:17;;;;;;;14.70;10.15;;;30.10;44.10;;;;;;5115146;28;20080;-78
2023/08/28 00:04:42;;;;;;;13.05;10.45;;;30.10;44.50;;;;;;5095314;22;20052;-78
2023/08/28 00:07:08;;;;;;;13.30;10.05;;;30.10;44.70;;;;;;5074306;28;20392;-79
2023/08/28 00:09:34;;;;;;;11.48;9.88;;;30.10;44.90;;;;;;5074587;28;20387;-78
2023/08/28 00:12:03;;;;;;;14.07;10.15;;;30.10;44.90;;;;;;5073957;28;20029;-79
2023/08/28 00:14:29;;;;;;;13.75;10.27;;;30.10;44.70;;;;;;5074243;28;20048;-78
2023/08/28 00:16:55;;;;;;;13.18;10.70;;;30.10;45.10;;;;;;5074368;28;20388;-78
2023/08/28 00:19:20;;;;;;;15.55;10.00;;;30.10;45.40;;;;;;5074285;28;20059;-78
2023/08/28 00:21:47;;;;;;;13.63;9.77;;;30.00;45.50;;;;;;5072822;28;20379;-78
2023/08/28 00:24:13;;;;;;;14.68;10.30;;;30.00;46.00;;;;;;5074473;28;20054;-79
2023/08/28 00:26:38;;;;;;;13.57;11.00;;;30.10;46.60;;;;;;5074143;28;20021;-80
2023/08/28 00:29:04;;;;;;;13.90;10.80;;;30.10;46.90;;;;;;5072510;28;20066;-78
2023/08/28 00:31:30;;;;;;;13.32;10.38;;;30.10;47.00;;;;;;5073620;28;20044;-78
2023/08/28 00:33:55;;;;;;;12.13;10.18;;;30.10;47.10;;;;;;5073551;28;20024;-78
2023/08/28 00:36:21;;;;;;;16.23;10.38;;;30.00;47.30;;;;;;5072739;28;20465;-77
2023/08/28 00:38:47;;;;;;;12.80;10.02;;;30.00;48.00;;;;;;5072751;28;20017;-78
2023/08/28 00:41:13;;;;;;;12.40;9.88;;;30.00;48.60;;;;;;5074244;28;20025;-79
2023/08/28 00:43:38;;;;;;;11.98;9.85;;;30.00;48.80;;;;;;5074601;28;20029;-78
2023/08/28 00:46:05;;;;;;;13.40;10.48;;;30.00;49.30;;;;;;5072206;28;20071;-79
2023/08/28 00:48:32;;;;;;;19.73;10.63;;;30.00;49.50;;;;;;5073963;28;20027;-78
2023/08/28 00:51:00;;;;;;;12.93;10.82;;;30.00;50.20;;;;;;5073243;28;20036;-78
2023/08/28 00:53:26;;;;;;;14.88;10.60;;;30.00;50.90;;;;;;5073645;28;20047;-78
2023/08/28 00:55:53;;;;;;;15.57;11.02;;;29.90;50.60;;;;;;5073391;28;20388;-79
2023/08/28 00:58:19;;;;;;;13.02;11.05;;;29.90;51.00;;;;;;5073387;28;20095;-79
2023/08/28 01:00:44;;;;;;;11.68;10.35;;;29.90;51.20;;;;;;5073381;28;20052;-79
2023/08/28 01:03:10;;;;;;;13.73;10.57;;;29.90;52.00;;;;;;5078664;28;20575;-79
2023/08/28 01:05:49;;;;;;;14.20;11.20;;;29.90;52.00;;;;;;5077569;28;20132;-78
2023/08/28 01:08:42;;;;;;;13.25;11.50;;;29.90;51.90;;;;;;5073745;28;20388;-79
2023/08/28 01:11:24;;;;;;;14.27;11.45;;;29.80;52.40;;;;;;5073393;28;20495;-78
2023/08/28 01:13:56;;;;;;;17.30;11.60;;;29.80;53.20;;;;;;5072246;28;20024;-78
2023/08/28 01:16:25;;;;;;;14.13;10.90;;;29.80;53.40;;;;;;5073496;28;20388;-79
2023/08/28 01:18:51;;;;;;;12.45;11.13;;;29.80;53.50;;;;;;5073080;28;20031;-79
2023/08/28 01:21:18;;;;;;;15.13;11.15;;;29.80;53.80;;;;;;5073065;28;20056;-80
2023/08/28 01:23:56;;;;;;;15.90;10.80;;;29.80;53.90;;;;;;5073072;28;20095;-79
2023/08/28 01:26:22;;;;;;;14.48;11.20;;;29.80;54.20;;;;;;5073184;28;20549;-79
2023/08/28 01:28:48;;;;;;;13.70;11.30;;;29.80;54.00;;;;;;5071546;28;20471;-79
2023/08/28 01:31:13;;;;;;;13.75;11.48;;;29.80;54.60;;;;;;5072547;28;20028;-78
2023/08/28 01:33:40;;;;;;;14.48;11.55;;;29.80;54.20;;;;;;5071188;28;20582;-78
2023/08/28 01:36:36;;;;;;;13.15;11.23;;;29.80;54.60;;;;;;5072535;28;20020;-79
2023/08/28 01:39:14;;;;;;;14.70;11.40;;;29.80;55.30;;;;;;5071731;28;20040;-78
2023/08/28 01:41:40;;;;;;;17.35;12.30;;;29.80;55.10;;;;;;5072657;28;20025;-79
2023/08/28 01:44:07;;;;;;;14.38;11.50;;;29.80;55.80;;;;;;5072743;28;20025;-78
2023/08/28 01:46:34;;;;;;;13.80;12.13;;;29.80;56.50;;;;;;5071285;28;20036;-77
2023/08/28 01:48:59;;;;;;;16.15;12.00;;;29.80;56.80;;;;;;5072658;28;20021;-78
2023/08/28 01:51:25;;;;;;;15.27;12.07;;;29.80;56.60;;;;;;5072371;28;20059;-79
2023/08/28 01:53:53;;;;;;;15.02;11.90;;;29.80;57.10;;;;;;5073435;28;20120;-78
2023/08/28 01:56:23;;;;;;;15.85;12.40;;;29.80;57.00;;;;;;5072339;28;20024;-77
2023/08/28 01:58:56;;;;;;;14.80;12.85;;;29.80;58.30;;;;;;5072190;28;20029;-79
2023/08/28 02:01:24;;;;;;;17.75;12.05;;;29.80;58.50;;;;;;5071820;28;20107;-78
2023/08/28 02:03:50;;;;;;;17.08;12.32;;;29.70;58.60;;;;;;5072460;28;20038;-80
2023/08/28 02:06:15;;;;;;;15.70;12.95;;;29.70;59.30;;;;;;5072059;28;20044;-79
2023/08/28 02:08:41;;;;;;;14.70;13.07;;;29.70;59.80;;;;;;5072379;28;20499;-78
2023/08/28 02:11:07;;;;;;;14.90;12.55;;;29.70;60.00;;;;;;5072203;28;20024;-79
2023/08/28 02:13:32;;;;;;;15.00;13.35;;;29.70;59.50;;;;;;5072262;28;20051;-79
2023/08/28 02:16:00;;;;;;;14.52;12.82;;;29.70;60.20;;;;;;5072259;28;20021;-79
2023/08/28 02:18:26;;;;;;;14.05;12.65;;;29.70;60.90;;;;;;5072005;28;20333;-80
2023/08/28 02:20:52;;;;;;;18.55;12.93;;;29.70;61.30;;;;;;5072064;28;20031;-79
2023/08/28 02:23:17;;;;;;;15.88;13.48;;;29.70;61.80;;;;;;5071856;28;20025;-78
2023/08/28 02:25:45;;;;;;;19.63;13.50;;;29.70;62.50;;;;;;5070382;28;20506;-79
2023/08/28 02:28:11;;;;;;;16.85;13.82;;;29.70;62.40;;;;;;5072264;28;20025;-80
2023/08/28 02:30:37;;;;;;;17.50;13.38;;;29.70;63.60;;;;;;5072114;28;20016;-78
2023/08/28 02:33:03;;;;;;;17.38;13.55;;;29.70;63.80;;;;;;5070304;28;20056;-78
2023/08/28 02:35:28;;;;;;;17.20;13.10;;;29.70;64.10;;;;;;5071725;28;20056;-79
2023/08/28 02:37:54;;;;;;;15.85;13.30;;;29.70;63.50;;;;;;5072005;28;20028;-79
2023/08/28 02:40:20;;;;;;;15.90;13.45;;;29.70;63.40;;;;;;5071668;28;20472;-79
2023/08/28 02:42:45;;;;;;;19.40;14.52;;;29.70;64.40;;;;;;5071809;28;20037;-79
2023/08/28 02:45:11;;;;;;;21.17;14.60;;;29.70;65.40;;;;;;5070274;28;20074;-79
2023/08/28 02:47:37;;;;;;;18.45;14.77;;;29.60;66.20;;;;;;5071655;28;20017;-79
2023/08/28 02:50:04;;;;;;;16.63;13.50;;;29.60;66.50;;;;;;5071763;28;20056;-78
2023/08/28 02:52:30;;;;;;;16.75;13.60;;;29.60;66.20;;;;;;5071399;28;20039;-79
2023/08/28 02:54:55;;;;;;;16.25;13.68;;;29.60;66.80;;;;;;5071317;28;20550;-80
2023/08/28 02:57:21;;;;;;;15.98;13.77;;;29.60;66.80;;;;;;5071209;28;20033;-79
2023/08/28 02:59:47;;;;;;;18.88;14.93;;;29.60;66.30;;;;;;5071631;28;20016;-78
2023/08/28 03:02:13;;;;;;;16.42;13.85;;;29.60;66.50;;;;;;5071630;28;20032;-79
2023/08/28 03:04:39;;;;;;;17.98;13.98;;;29.60;67.10;;;;;;5071635;28;20049;-79
2023/08/28 03:07:04;;;;;;;18.77;13.90;;;29.60;67.10;;;;;;5069898;28;20032;-78
2023/08/28 03:09:32;;;;;;;19.17;13.30;;;29.60;67.20;;;;;;5071300;28;20503;-78
2023/08/28 03:11:57;;;;;;;19.83;14.40;;;29.60;67.20;;;;;;5071105;28;20029;-77
2023/08/28 03:14:23;;;;;;;20.17;14.65;;;29.60;67.50;;;;;;5074979;28;20028;-78
2023/08/28 03:16:49;;;;;;;18.98;14.48;;;29.60;67.80;;;;;;5075065;28;20024;-78
2023/08/28 03:19:14;;;;;;;18.27;13.93;;;29.60;67.80;;;;;;5075266;28;20032;-77
2023/08/28 03:21:40;;;;;;;17.55;13.73;;;29.60;68.10;;;;;;5075311;28;20020;-78
2023/08/28 03:24:06;;;;;;;18.17;14.07;;;29.50;68.50;;;;;;5075142;28;20029;-78
2023/08/28 03:26:33;;;;;;;22.05;14.55;;;29.50;69.10;;;;;;5075249;28;20113;-78
2023/08/28 03:28:59;;;;;;;16.60;14.05;;;29.50;68.70;;;;;;5075570;28;20020;-79
2023/08/28 03:31:26;;;;;;;17.75;13.90;;;29.50;68.80;;;;;;5075395;28;20089;-78
2023/08/28 03:33:52;;;;;;;19.40;15.13;;;29.50;68.70;;;;;;5075237;28;20025;-78
2023/08/28 03:36:17;;;;;;;18.83;14.65;;;29.50;68.50;;;;;;5074796;28;20031;-78
2023/08/28 03:38:43;;;;;;;21.05;15.10;;;29.50;69.00;;;;;;5073694;28;20021;-78
2023/08/28 03:41:09;;;;;;;23.00;15.88;;;29.50;69.20;;;;;;5074645;28;20046;-76
2023/08/28 03:43:35;;;;;;;16.63;13.75;;;29.50;70.60;;;;;;5075013;28;20025;-78
2023/08/28 03:46:01;;;;;;;19.95;16.10;;;29.40;70.20;;;;;;5075005;28;20416;-78
2023/08/28 03:48:26;;;;;;;19.40;14.38;;;29.40;71.50;;;;;;5073418;28;20031;-78
2023/08/28 03:50:52;;;;;;;23.30;14.32;;;29.40;71.80;;;;;;5074597;28;20047;-78
2023/08/28 03:53:18;;;;;;;16.77;14.90;;;29.40;71.30;;;;;;5074694;28;20028;-78
2023/08/28 03:55:44;;;;;;;18.50;15.57;;;29.40;71.50;;;;;;5074665;28;20017;-79
2023/08/28 03:58:10;;;;;;;19.92;14.90;;;29.40;72.10;;;;;;5073407;28;20431;-78
2023/08/28 04:00:36;;;;;;;19.45;15.60;;;29.30;71.70;;;;;;5074804;28;20021;-78
2023/08/28 04:03:01;;;;;;;20.80;15.90;;;29.30;72.10;;;;;;5074680;28;20472;-78
2023/08/28 04:05:27;;;;;;;19.60;16.05;;;29.30;72.70;;;;;;5074586;28;20048;-79
2023/08/28 04:07:53;;;;;;;20.60;15.60;;;29.30;73.00;;;;;;5074743;28;20507;-78
2023/08/28 04:10:19;;;;;;;19.83;15.57;;;29.30;73.50;;;;;;5072960;28;20031;-78
2023/08/28 04:12:45;;;;;;;22.98;16.40;;;29.30;73.50;;;;;;5074158;28;20028;-78
2023/08/28 04:15:11;;;;;;;19.90;16.10;;;29.30;74.50;;;;;;5076067;28;20032;-78
2023/08/28 04:17:38;;;;;;;18.98;14.95;;;29.20;74.60;;;;;;5074615;28;20028;-77
2023/08/28 04:20:15;;;;;;;22.60;16.60;;;29.20;74.40;;;;;;5074128;28;20198;-78
2023/08/28 04:22:43;;;;;;;22.20;17.05;;;29.20;75.00;;;;;;5074000;28;20093;-78
2023/08/28 04:25:09;;;;;;;21.27;18.08;;;29.20;75.80;;;;;;5073465;28;20484;-79
2023/08/28 04:27:35;;;;;;;18.70;16.70;;;29.10;76.50;;;;;;5073903;28;20035;-78
2023/08/28 04:30:01;;;;;;;20.45;16.98;;;29.10;76.30;;;;;;5073971;28;20028;-78
2023/08/28 04:32:27;;;;;;;23.75;17.58;;;29.10;76.60;;;;;;5073641;28;20032;-78
2023/08/28 04:34:53;;;;;;;17.50;15.43;;;29.10;76.80;;;;;;5073479;28;20111;-78
2023/08/28 04:37:18;;;;;;;25.65;19.98;;;29.10;75.90;;;;;;5073764;28;20040;-78
2023/08/28 04:39:44;;;;;;;23.50;18.38;;;29.10;76.90;;;;;;5073645;28;20021;-79
2023/08/28 04:42:10;;;;;;;25.15;18.08;;;29.10;77.10;;;;;;5073405;28;20029;-77
2023/08/28 04:44:36;;;;;;;24.02;17.17;;;29.10;77.20;;;;;;5073743;28;20372;-79
2023/08/28 04:47:02;;;;;;;26.35;18.27;;;29.10;76.90;;;;;;5072659;28;20032;-78
2023/08/28 04:49:28;;;;;;;22.27;16.52;;;29.10;76.80;;;;;;5074090;28;20024;-78
2023/08/28 04:51:53;;;;;;;21.35;16.67;;;29.10;76.30;;;;;;5073811;28;20059;-78
2023/08/28 04:54:19;;;;;;;19.92;16.00;;;29.00;75.90;;;;;;5073496;28;20361;-77
2023/08/28 04:56:45;;;;;;;19.38;16.92;;;29.10;75.60;;;;;;5072325;28;20456;-77
2023/08/28 04:59:12;;;;;;;26.20;20.17;;;29.10;75.90;;;;;;5073529;28;20372;-78
2023/08/28 05:01:38;;;;;;;28.35;17.90;;;29.10;76.80;;;;;;5073671;28;20021;-79
2023/08/28 05:04:04;;;;;;;28.40;19.00;;;29.10;76.50;;;;;;5071852;28;20031;-76
2023/08/28 05:06:30;;;;;;;26.90;19.70;;;29.20;76.90;;;;;;5073475;28;20037;-77
2023/08/28 05:08:56;;;;;;;22.80;17.92;;;29.20;78.20;;;;;;5073386;28;20515;-78
2023/08/28 05:11:22;;;;;;;23.20;18.58;;;29.10;77.60;;;;;;5071765;28;20145;-79
2023/08/28 05:13:48;;;;;;;23.30;19.23;;;29.20;78.10;;;;;;5073279;28;20024;-79
2023/08/28 05:16:13;;;;;;;23.02;17.63;;;29.10;78.20;;;;;;5073452;28;20369;-78
2023/08/28 05:18:39;;;;;;;22.40;16.60;;;29.10;78.00;;;;;;5073342;28;20028;-79
2023/08/28 05:21:05;;;;;;;24.58;18.05;;;29.10;77.20;;;;;;5073191;28;20525;-80
2023/08/28 05:23:31;;;;;;;21.35;19.02;;;29.10;77.30;;;;;;5071329;28;20036;-69
2023/08/28 05:25:57;;;;;;;23.83;18.02;;;29.00;77.70;;;;;;5066696;28;20477;-68
2023/08/28 05:28:23;;;;;;;22.58;17.00;;;29.00;77.60;;;;;;5069367;28;20033;-70
2023/08/28 05:30:49;;;;;;;28.10;17.63;;;28.90;77.50;;;;;;5072550;28;20031;-71
2023/08/28 05:33:15;;;;;;;23.60;16.38;;;28.90;76.40;;;;;;5072796;28;20063;-70
2023/08/28 05:35:42;;;;;;;22.15;17.13;;;28.90;76.60;;;;;;5068355;28;20056;-70
2023/08/28 05:38:08;;;;;;;24.55;17.77;;;28.80;76.40;;;;;;5052726;28;20548;-68
2023/08/28 05:40:33;;;;;;;20.10;16.40;;;28.80;76.80;;;;;;5069819;28;20387;-69
2023/08/28 05:43:00;;;;;;;20.85;14.98;;;28.70;76.50;;;;;;5061062;28;20025;-70
2023/08/28 05:45:25;;;;;;;23.00;15.60;;;28.70;76.10;;;;;;5071347;28;20025;-69
2023/08/28 05:47:51;;;;;;;18.17;13.23;;;28.70;76.70;;;;;;5072559;28;20028;-68
2023/08/28 05:50:18;;;;;;;18.90;12.15;;;28.60;76.60;;;;;;5070863;28;20143;-69
2023/08/28 05:52:44;;;;;;;16.40;7.35;;;28.50;76.50;;;;;;5072310;28;20032;-68
2023/08/28 05:55:10;;;;;;;17.25;5.20;;;28.40;75.60;;;;;;5072699;28;20024;-68
2023/08/28 05:57:36;;;;;;;14.32;7.05;;;28.10;75.20;;;;;;5072298;28;20031;-68
2023/08/28 06:00:03;;;;;;;17.05;4.93;;;28.00;74.80;;;;;;5072134;28;20477;-69
2023/08/28 06:02:28;;;;;;;14.68;4.88;;;27.90;75.00;;;;;;5072005;28;20031;-70
2023/08/28 06:04:54;;;;;;;21.58;5.22;;;27.80;74.90;;;;;;5071914;28;20116;-68
2023/08/28 06:07:20;;;;;;;22.08;5.20;;;27.70;75.00;;;;;;5071767;28;20024;-69
2023/08/28 06:09:46;;;;;;;20.75;4.57;;;27.60;75.30;;;;;;5072154;28;20035;-69
2023/08/28 06:12:11;;;;;;;20.50;4.93;;;27.50;75.70;;;;;;5071948;28;20040;-68
2023/08/28 06:14:37;;;;;;;18.13;4.10;;;27.40;75.70;;;;;;5072467;28;20107;-68
2023/08/28 06:17:03;;;;;;;16.05;4.88;;;27.40;75.70;;;;;;5067329;28;20158;-68
2023/08/28 06:19:29;;;;;;;18.00;5.20;;;27.40;75.50;;;;;;5051830;28;20021;-69
2023/08/28 06:21:55;;;;;;;12.98;4.45;;;27.50;75.20;;;;;;5062193;28;20120;-69
2023/08/28 06:24:21;;;;;;;16.65;5.03;;;27.50;74.90;;;;;;5062805;28;20112;-69
2023/08/28 06:26:46;;;;;;;15.20;4.20;;;27.60;75.30;;;;;;5068779;28;20484;-69
2023/08/28 06:29:12;;;;;;;17.58;5.68;;;27.60;75.00;;;;;;5071728;28;20032;-69
2023/08/28 06:31:38;;;;;;;19.67;6.40;;;27.50;75.10;;;;;;5071695;28;20044;-70
2023/08/28 06:34:04;;;;;;;17.52;4.20;;;27.60;73.70;;;;;;5071955;28;20131;-69
2023/08/28 06:36:30;;;;;;;20.25;5.90;;;27.60;75.00;;;;;;5071986;28;20480;-70
2023/08/28 06:38:56;;;;;;;17.48;5.28;;;27.60;74.50;;;;;;5071856;28;20020;-69
2023/08/28 06:41:22;;;;;;;30.77;6.38;;;27.70;74.60;;;;;;5071796;28;20032;-69
2023/08/28 06:43:48;;;;;;;29.58;7.70;;;27.70;74.40;;;;;;5071555;28;20486;-71
2023/08/28 06:46:15;;;;;;;29.10;6.18;;;27.70;74.20;;;;;;5071294;28;20458;-75
2023/08/28 06:48:43;;;;;;;27.85;6.45;;;27.80;74.40;;;;;;5071577;28;20541;-69
2023/08/28 06:51:12;;;;;;;22.67;5.47;;;27.80;74.20;;;;;;5069278;28;20508;-69
2023/08/28 06:53:38;;;;;;;20.58;5.03;;;27.80;73.90;;;;;;5065940;28;20041;-66
2023/08/28 06:56:05;;;;;;;18.63;5.80;;;27.90;74.60;;;;;;5061579;28;20354;-66
2023/08/28 06:58:31;;;;;;;18.63;4.68;;;27.90;74.80;;;;;;5060572;28;20039;-67
2023/08/28 07:00:57;;;;;;;21.80;6.38;;;28.00;74.80;;;;;;5060630;28;20018;-67
2023/08/28 07:03:23;;;;;;;24.00;5.68;;;27.90;74.50;;;;;;5060016;28;20040;-67
2023/08/28 07:05:49;;;;;;;21.35;5.22;;;28.00;74.60;;;;;;5061673;28;20520;-66
2023/08/28 07:08:15;;;;;;;21.75;6.88;;;28.00;74.20;;;;;;5059248;28;20101;-66
2023/08/28 07:10:41;;;;;;;27.55;7.50;;;28.00;74.00;;;;;;5055897;28;20081;-66
2023/08/28 07:13:06;;;;;;;19.73;4.88;;;28.10;73.90;;;;;;5070696;28;20055;-65
2023/08/28 07:15:32;;;;;;;19.63;4.80;;;28.20;74.30;;;;;;5066880;28;20025;-66
2023/08/28 07:17:58;;;;;;;23.92;5.45;;;28.30;74.20;;;;;;5063942;28;20105;-66
2023/08/28 07:20:23;;;;;;;19.10;5.80;;;28.50;73.70;;;;;;5070939;28;20075;-65
2023/08/28 07:22:50;;;;;;;14.45;4.72;;;28.80;72.80;;;;;;5070457;28;20063;-66
2023/08/28 07:25:19;;;;;;;24.58;6.03;;;28.90;72.40;;;;;;5070516;28;20021;-66
2023/08/28 07:27:45;;;;;;;21.38;6.05;;;28.90;72.10;;;;;;5069591;28;20028;-65
2023/08/28 07:30:11;;;;;;;21.10;6.97;;;29.00;72.20;;;;;;5070886;28;20021;-65
2023/08/28 07:32:36;;;;;;;15.55;5.18;;;29.00;71.50;;;;;;5070827;28;20037;-66
2023/08/28 07:35:02;;;;;;;20.58;5.90;;;29.00;71.80;;;;;;5070968;28;20028;-65
2023/08/28 07:37:29;;;;;;;15.32;5.22;;;29.10;71.20;;;;;;5070847;28;20028;-66
2023/08/28 07:39:54;;;;;;;21.60;4.30;;;29.20;71.40;;;;;;5071055;28;20024;-66
2023/08/28 07:42:20;;;;;;;17.85;4.93;;;29.20;70.70;;;;;;5070966;28;20108;-68
2023/08/28 07:44:47;;;;;;;12.15;4.50;;;29.20;70.40;;;;;;5069653;28;20029;-67
2023/08/28 07:47:13;;;;;;;13.27;3.90;;;29.30;70.30;;;;;;5069241;28;20025;-69
2023/08/28 07:49:40;;;;;;;16.48;5.28;;;29.50;69.30;;;;;;5071194;28;20039;-67
2023/08/28 07:52:06;;;;;;;16.52;4.18;;;29.50;68.10;;;;;;5069546;28;20082;-67
2023/08/28 07:54:31;;;;;;;15.35;3.92;;;29.50;67.30;;;;;;5070913;28;20388;-68
2023/08/28 07:56:57;;;;;;;13.77;3.78;;;29.50;66.30;;;;;;5071186;28;20112;-68
2023/08/28 07:59:23;;;;;;;15.23;4.07;;;29.50;65.30;;;;;;5071451;28;20043;-70
2023/08/28 08:01:48;;;;;;;14.88;3.95;;;29.40;64.90;;;;;;5074355;28;20032;-68
2023/08/28 08:04:14;;;;;;;17.65;4.57;;;29.40;64.50;;;;;;5074110;28;20024;-70
2023/08/28 08:06:40;;;;;;;14.85;4.03;;;29.30;64.20;;;;;;5074446;28;20029;-67
2023/08/28 08:09:06;;;;;;;15.20;4.35;;;29.30;63.60;;;;;;5074405;28;20395;-68
2023/08/28 08:11:34;;;;;;;14.93;4.03;;;29.20;63.30;;;;;;5074114;28;20041;-69
2023/08/28 08:14:00;;;;;;;14.85;3.85;;;29.20;62.60;;;;;;5072982;28;20436;-68
2023/08/28 08:16:26;;;;;;;19.48;4.22;;;29.20;62.10;;;;;;5073740;28;20210;-68
2023/08/28 08:18:51;;;;;;;12.02;3.58;;;29.10;61.60;;;;;;5073775;28;20546;-68
2023/08/28 08:21:17;;;;;;;11.65;3.38;;;29.10;61.30;;;;;;5073562;28;20380;-67
2023/08/28 08:23:43;;;;;;;10.30;3.15;;;29.10;60.60;;;;;;5071751;28;20028;-68
2023/08/28 08:26:09;;;;;;;14.25;3.17;;;29.20;60.10;;;;;;5073730;28;20025;-69
2023/08/28 08:28:35;;;;;;;13.00;3.25;;;29.10;59.50;;;;;;5073801;28;20453;-69
2023/08/28 08:31:01;;;;;;;11.63;3.38;;;29.10;58.20;;;;;;5073893;28;20071;-68
2023/08/28 08:33:26;;;;;;;10.63;2.97;;;29.00;58.30;;;;;;5072325;28;20052;-68
2023/08/28 08:35:52;;;;;;;13.38;3.40;;;29.00;57.50;;;;;;5067494;28;20074;-68
2023/08/28 08:38:18;;;;;;;12.15;3.35;;;29.00;57.50;;;;;;5058436;28;20127;-68
2023/08/28 08:40:44;;;;;;;11.23;3.33;;;29.00;57.00;;;;;;5053608;28;20021;-70
2023/08/28 08:43:10;;;;;;;12.65;3.28;;;28.90;56.50;;;;;;5053461;28;20151;-68
2023/08/28 08:45:38;;;;;;;17.30;3.45;;;29.00;56.80;;;;;;5053279;28;20475;-68
2023/08/28 08:48:09;;;;;;;12.30;3.42;;;29.00;56.50;;;;;;5051955;28;20032;-68
2023/08/28 08:50:37;;;;;;;11.80;3.40;;;29.00;56.50;;;;;;5053343;28;20083;-68
2023/08/28 08:53:07;;;;;;;11.35;3.15;;;29.00;56.50;;;;;;5053064;28;20033;-68
2023/08/28 08:55:45;;;;;;;10.10;2.72;;;29.10;56.80;;;;;;5053029;28;20180;-68
2023/08/28 08:58:14;;;;;;;11.73;2.65;;;29.10;57.00;;;;;;5068887;28;20081;-69
2023/08/28 09:00:43;;;;;;;8.95;3.25;;;29.20;57.00;;;;;;5073235;28;20020;-68
2023/08/28 09:03:10;;;;;;;12.73;2.85;;;29.10;57.30;;;;;;5073111;28;20098;-67
2023/08/28 09:05:36;;;;;;;9.35;2.63;;;29.20;57.30;;;;;;5073134;28;20140;-66
2023/08/28 09:08:06;;;;;;;12.90;3.45;;;29.30;57.50;;;;;;5073203;28;20529;-68
2023/08/28 09:10:32;;;;;;;12.27;3.38;;;29.30;57.60;;;;;;5073253;28;20557;-66
2023/08/28 09:12:58;;;;;;;10.70;2.92;;;29.40;57.70;;;;;;5044289;28;20051;-66
2023/08/28 09:15:25;;;;;;;11.82;3.17;;;29.40;56.80;;;;;;5055428;28;20392;-67
2023/08/28 09:17:51;;;;;;;21.45;3.25;;;29.40;56.70;;;;;;5056185;28;20025;-66
2023/08/28 09:20:19;;;;;;;13.05;2.83;;;29.40;55.90;;;;;;5061787;28;20131;-67
2023/08/28 09:22:49;;;;;;;13.15;3.28;;;29.40;55.50;;;;;;5052868;28;20463;-67
2023/08/28 09:25:20;;;;;;;16.42;2.92;;;29.40;54.90;;;;;;5052707;28;20029;-66
2023/08/28 09:27:48;;;;;;;16.77;2.90;;;29.40;54.80;;;;;;5053130;28;20025;-66
2023/08/28 09:30:30;;;;;;;14.18;3.30;;;29.30;55.00;;;;;;5052986;28;20068;-66
2023/08/28 09:33:01;;;;;;;13.93;3.30;;;29.30;55.50;;;;;;5052769;28;20033;-66
2023/08/28 09:35:28;;;;;;;10.10;3.15;;;29.20;55.80;;;;;;5052744;28;20484;-67
2023/08/28 09:37:58;;;;;;;19.05;3.28;;;29.20;56.60;;;;;;5052943;28;20033;-67
2023/08/28 09:40:32;;;;;;;16.77;3.70;;;29.20;56.70;;;;;;5064005;28;20031;-67
2023/08/28 09:42:59;;;;;;;15.60;3.45;;;29.10;56.60;;;;;;5072691;28;20082;-67
2023/08/28 09:45:34;;;;;;;18.77;4.85;;;29.10;56.10;;;;;;5072368;28;20025;-67
2023/08/28 09:48:04;;;;;;;31.05;8.07;;;29.10;56.00;;;;;;5072592;28;20044;-67
2023/08/28 09:50:31;;;;;;;25.75;7.00;;;29.20;55.50;;;;;;5063765;28;20115;-67
2023/08/28 09:53:10;;;;;;;32.83;8.77;;;29.10;55.50;;;;;;5062664;28;20036;-68
2023/08/28 09:55:53;;;;;;;23.33;6.60;;;29.10;55.40;;;;;;5059289;28;20044;-67
2023/08/28 09:58:21;;;;;;;;;;;29.10;55.10;;;;;;5072584;28;20503;-68
2023/08/28 10:00:47;;;;;;;24.83;5.68;;;29.00;54.40;;;;;;5069961;28;19951;-83
2023/08/28 10:03:14;;;;;;;18.23;5.30;;;29.10;55.50;;;;;;5074533;28;20040;-91
2023/08/28 10:05:42;;;;;;;20.00;5.15;;;29.10;55.30;;;;;;5076890;28;20044;-87
2023/08/28 10:08:10;;;;;;;14.95;4.47;;;29.20;55.60;;;;;;5071324;28;20481;-88
2023/08/28 10:10:38;;;;;;;13.27;3.17;;;29.20;55.80;;;;;;5075711;28;20361;-86
2023/08/28 10:13:15;;;;;;;15.48;4.68;;;29.20;56.00;;;;;;5085092;28;20032;-86
2023/08/28 10:16:03;;;;;;;21.30;4.78;;;29.30;56.10;;;;;;5087593;28;20025;-86
2023/08/28 10:18:36;;;;;;;19.27;4.75;;;29.30;55.80;;;;;;5075997;28;20032;-87
2023/08/28 10:21:02;;;;;;;17.45;4.15;;;29.30;55.30;;;;;;5073341;28;20376;-87
2023/08/28 10:23:28;;;;;;;10.77;3.28;;;29.30;55.40;;;;;;5073567;28;20449;-86
2023/08/28 10:25:55;;;;;;;15.60;4.22;;;29.30;56.00;;;;;;5072969;28;20025;-86
2023/08/28 10:28:24;;;;;;;14.02;3.55;;;29.30;55.70;;;;;;5072721;28;20074;-86
2023/08/28 10:30:51;;;;;;;13.52;2.80;;;29.20;56.00;;;;;;5075018;28;20024;-87
2023/08/28 10:33:22;;;;;;;11.32;3.55;;;29.00;56.30;;;;;;5072836;28;20033;-87
2023/08/28 10:35:50;;;;;;;11.77;3.55;;;28.90;56.50;;;;;;5073135;28;20024;-88
2023/08/28 10:38:21;;;;;;;14.07;3.92;;;28.90;56.40;;;;;;5073036;28;20499;-84
2023/08/28 10:40:53;;;;;;;10.25;3.20;;;28.80;56.80;;;;;;5072862;28;20090;-85
2023/08/28 10:43:21;;;;;;;11.48;3.00;;;28.80;57.00;;;;;;5073159;28;20028;-88
2023/08/28 10:45:49;;;;;;;13.68;3.90;;;28.80;56.90;;;;;;5073127;28;20104;-87
2023/08/28 10:48:17;;;;;;;14.02;3.08;;;28.70;56.90;;;;;;5073696;28;20028;-87
2023/08/28 10:50:44;;;;;;;14.00;3.13;;;28.60;57.60;;;;;;5073589;28;20112;-88
2023/08/28 10:53:16;;;;;;;13.63;2.80;;;28.40;57.90;;;;;;5073272;28;20036;-88
2023/08/28 10:55:56;;;;;;;16.20;3.50;;;28.30;58.20;;;;;;5073394;28;20153;-88
2023/08/28 10:58:22;;;;;;;14.77;3.33;;;28.10;58.90;;;;;;5073603;28;20079;-85
2023/08/28 11:00:48;;;;;;;12.50;3.92;;;27.80;59.20;;;;;;5077752;28;20028;-87
2023/08/28 11:03:18;;;;;;;16.83;3.58;;;27.80;59.80;;;;;;5080063;28;20032;-87
2023/08/28 11:05:44;;;;;;;13.75;3.45;;;27.80;59.60;;;;;;5088977;28;20102;-82
2023/08/28 11:08:13;;;;;;;12.23;3.17;;;27.80;59.20;;;;;;5079239;28;20028;-86
2023/08/28 11:10:49;;;;;;;17.50;4.00;;;27.90;58.90;;;;;;5076177;28;20012;-87
2023/08/28 11:13:23;;;;;;;12.50;3.63;;;27.90;58.50;;;;;;5074316;28;20029;-86
2023/08/28 11:16:00;;;;;;;11.63;3.42;;;28.10;57.70;;;;;;5074408;28;20031;-87
2023/08/28 11:18:30;;;;;;;15.30;3.58;;;28.10;56.60;;;;;;5074706;28;20092;-85
2023/08/28 11:20:58;;;;;;;17.95;3.72;;;28.30;56.30;;;;;;5079691;28;20104;-86
2023/08/28 11:23:39;;;;;;;12.90;3.28;;;28.30;56.20;;;;;;5073451;28;20333;-85
2023/08/28 11:26:26;;;;;;;13.82;3.88;;;28.30;56.00;;;;;;5072886;28;20024;-85
2023/08/28 11:28:52;;;;;;;14.88;3.80;;;28.30;55.90;;;;;;5072958;28;20021;-87
2023/08/28 11:31:22;;;;;;;15.50;4.18;;;28.20;55.60;;;;;;5072416;28;20032;-87
2023/08/28 11:33:49;;;;;;;15.55;4.10;;;28.20;55.50;;;;;;5074672;28;20029;-87
2023/08/28 11:36:18;;;;;;;15.77;4.68;;;28.20;54.80;;;;;;5083951;28;20072;-85
2023/08/28 11:38:43;;;;;;;12.05;3.10;;;28.20;54.60;;;;;;5090942;28;20020;-81
2023/08/28 11:41:10;;;;;;;14.85;2.83;;;28.10;54.80;;;;;;5080597;28;20349;-87
2023/08/28 11:43:42;;;;;;;12.77;2.80;;;28.00;54.80;;;;;;5076433;28;20471;-85
2023/08/28 11:46:09;;;;;;;15.02;3.22;;;28.00;54.80;;;;;;5076934;28;20032;-86
2023/08/28 11:48:39;;;;;;;16.17;3.58;;;27.90;54.90;;;;;;5077232;28;20032;-86
